Terminal Aerodrome Forecast
Issued by NWS

Home | Current Version | Previous Version | Text Only | Print | Product List | Glossary On
Versions: 1 2 3 4 5 6 7 8 9 10 11 12 13 14 15 16 17 18 19 20 21 22 23 24 25 26
000
FTAK31 PAJK 220540
TAFAKT
TAF
PAKT 220540Z 2206/2306 14023G35KT 4SM RA BR SCT015 OVC025
      WS015/16050KT
     FM220900 14037G54KT 4SM RA BR BKN012 OVC022 WS020/15060KT
     FM221600 15020G34KT 3SM RA BR BKN012 OVC020 WS020/19040KT
     FM221900 31012KT P6SM VCSH OVC045
     FM230200 12007KT P6SM VCSH BKN040
     AMD LTD TO CLD VIS AND WIND 2206/2215=

USA.gov is the U.S. government's official web portal to all federal, state and local government web resources and services.